Time;durP1;ratioP1;P1;durP2;ratioP2;P2;SDS_P1;SDS_P2;PMS_P1;PMS_P2;Temp;Humidity;BMP_temperature;BMP_pressure;BME280_temperature;BME280_humidity;BME280_pressure;Samples;Min_cycle;Max_cycle;Signal;HPM_P1;HPM_P2
2021/12/06 00:02:23;;;;;;;15.48;11.02;;;6.20;86.20;;;;;;4991102;28;20144;-78
2021/12/06 00:04:50;;;;;;;15.68;11.73;;;6.20;86.20;;;;;;4986047;28;20034;-78
2021/12/06 00:07:20;;;;;;;10.55;7.28;;;6.20;86.10;;;;;;4982099;28;20026;-78
2021/12/06 00:09:46;;;;;;;14.13;10.18;;;6.20;86.10;;;;;;4980860;28;20026;-79
2021/12/06 00:12:13;;;;;;;16.52;11.82;;;6.20;86.10;;;;;;4979843;28;20042;-78
2021/12/06 00:14:40;;;;;;;13.05;9.93;;;6.20;86.10;;;;;;4978162;28;20110;-79
2021/12/06 00:17:09;;;;;;;19.15;14.45;;;6.20;86.10;;;;;;4982779;28;20505;-78
2021/12/06 00:19:37;;;;;;;16.10;12.05;;;6.10;86.00;;;;;;4983914;28;20031;-78
2021/12/06 00:22:06;;;;;;;17.50;11.88;;;6.10;86.20;;;;;;4981687;28;20100;-78
2021/12/06 00:24:32;;;;;;;16.17;11.38;;;6.10;86.30;;;;;;4984726;28;20492;-78
2021/12/06 00:26:58;;;;;;;15.60;11.20;;;6.10;86.30;;;;;;4981888;28;20023;-79
2021/12/06 00:29:24;;;;;;;10.60;7.53;;;6.10;86.30;;;;;;4987151;28;20437;-78
2021/12/06 00:31:50;;;;;;;12.15;8.85;;;6.10;86.30;;;;;;4983803;28;20030;-78
2021/12/06 00:34:18;;;;;;;10.30;7.18;;;6.10;86.20;;;;;;4981909;28;20129;-78
2021/12/06 00:36:52;;;;;;;18.70;12.23;;;6.20;86.20;;;;;;4984489;28;20074;-78
2021/12/06 00:39:18;;;;;;;18.85;13.00;;;6.10;86.20;;;;;;4989677;28;20026;-78
2021/12/06 00:41:44;;;;;;;17.45;12.30;;;6.10;86.20;;;;;;4982267;28;20026;-79
2021/12/06 00:44:10;;;;;;;18.42;12.38;;;6.10;86.30;;;;;;4983169;28;20034;-78
2021/12/06 00:46:37;;;;;;;18.25;11.90;;;6.10;86.50;;;;;;4980747;28;20078;-78
2021/12/06 00:49:10;;;;;;;18.15;11.85;;;6.10;86.50;;;;;;4987504;28;20022;-78
2021/12/06 00:51:36;;;;;;;19.52;12.10;;;6.20;86.50;;;;;;4988958;28;20053;-79
2021/12/06 00:54:01;;;;;;;20.80;13.75;;;6.20;86.50;;;;;;4976514;28;20378;-79
2021/12/06 00:56:27;;;;;;;20.40;12.80;;;6.20;86.40;;;;;;4976018;28;20027;-79
2021/12/06 00:58:52;;;;;;;20.23;12.77;;;6.20;86.50;;;;;;4981422;28;20018;-79
2021/12/06 01:01:19;;;;;;;12.95;8.45;;;6.20;86.40;;;;;;4986365;28;20509;-79
2021/12/06 01:03:44;;;;;;;20.52;13.40;;;6.20;86.50;;;;;;4992173;28;20034;-79
2021/12/06 01:06:12;;;;;;;19.60;13.30;;;6.20;86.50;;;;;;4983896;28;20032;-79
2021/12/06 01:08:38;;;;;;;17.73;11.88;;;6.30;86.60;;;;;;4984994;28;20030;-79
2021/12/06 01:11:05;;;;;;;16.95;11.65;;;6.30;86.60;;;;;;4980116;28;20011;-78
2021/12/06 01:13:30;;;;;;;15.65;10.20;;;6.30;86.50;;;;;;4985248;28;20064;-78
2021/12/06 01:15:57;;;;;;;25.75;16.77;;;6.30;86.50;;;;;;4985204;28;20027;-78
2021/12/06 01:18:23;;;;;;;25.60;15.80;;;6.30;86.50;;;;;;4984177;28;20030;-79
2021/12/06 01:20:57;;;;;;;26.70;15.85;;;6.20;86.50;;;;;;4987514;28;20027;-79
2021/12/06 01:23:28;;;;;;;18.73;11.85;;;6.20;86.70;;;;;;4982977;28;20035;-78
2021/12/06 01:31:20;;;;;;;21.20;13.10;;;6.30;86.70;;;;;;4976191;28;20031;-79
2021/12/06 01:39:17;;;;;;;25.15;15.02;;;6.40;86.60;;;;;;4982353;28;20172;-79
2021/12/06 01:41:53;;;;;;;22.38;13.65;;;6.30;86.50;;;;;;4980632;28;20038;-79
2021/12/06 01:44:25;;;;;;;26.85;15.77;;;6.20;86.60;;;;;;4977434;28;20046;-78
2021/12/06 01:47:15;;;;;;;22.58;13.15;;;6.20;86.80;;;;;;4982931;28;20022;-79
2021/12/06 01:49:49;;;;;;;21.13;12.70;;;6.30;86.90;;;;;;4986502;28;20043;-78
2021/12/06 01:52:25;;;;;;;20.92;13.05;;;6.30;86.90;;;;;;4983910;28;20082;-79
2021/12/06 01:54:52;;;;;;;22.90;13.27;;;6.30;86.80;;;;;;4991278;28;20034;-79
2021/12/06 01:57:18;;;;;;;24.60;14.32;;;6.40;86.90;;;;;;4985142;28;20489;-79
2021/12/06 01:59:44;;;;;;;22.85;13.07;;;6.40;86.80;;;;;;4989603;28;20037;-79
2021/12/06 02:02:11;;;;;;;18.73;10.60;;;6.40;86.80;;;;;;4990648;28;20018;-79
2021/12/06 02:04:38;;;;;;;23.90;15.07;;;6.50;86.70;;;;;;4991178;28;20045;-79
2021/12/06 02:07:07;;;;;;;25.92;15.20;;;6.40;86.60;;;;;;4985667;28;20133;-79
2021/12/06 02:09:33;;;;;;;23.70;14.18;;;6.40;86.70;;;;;;4981920;28;20037;-78
2021/12/06 02:12:01;;;;;;;17.55;10.95;;;6.40;86.70;;;;;;4991107;28;20022;-78
2021/12/06 02:17:12;;;;;;;24.20;13.93;;;6.40;86.70;;;;;;4984285;28;20037;-78
2021/12/06 02:19:42;;;;;;;25.67;13.80;;;6.40;86.70;;;;;;4991650;28;20046;-79
2021/12/06 02:22:11;;;;;;;23.23;13.57;;;6.40;86.70;;;;;;4982717;28;20021;-79
2021/12/06 02:24:37;;;;;;;24.23;14.18;;;6.40;86.70;;;;;;4988694;28;20031;-79
2021/12/06 02:27:05;;;;;;;22.00;13.88;;;6.50;86.60;;;;;;4983614;28;20422;-78
2021/12/06 02:29:31;;;;;;;24.30;14.05;;;6.60;86.60;;;;;;4986146;28;20056;-79
2021/12/06 02:31:56;;;;;;;24.02;14.55;;;6.60;86.50;;;;;;4991456;28;20381;-81
2021/12/06 02:34:22;;;;;;;19.20;11.80;;;6.60;86.30;;;;;;4984773;28;20089;-81
2021/12/06 02:36:47;;;;;;;27.58;14.95;;;6.60;86.30;;;;;;4985769;28;20394;-80
2021/12/06 02:39:21;;;;;;;26.15;14.48;;;6.60;86.30;;;;;;4984962;28;20158;-80
2021/12/06 02:41:48;;;;;;;23.85;14.38;;;6.60;86.30;;;;;;4984058;28;20030;-80
2021/12/06 02:44:15;;;;;;;23.13;13.07;;;6.60;86.40;;;;;;4981067;28;20054;-80
2021/12/06 02:46:41;;;;;;;23.83;13.82;;;6.70;86.50;;;;;;4990008;28;20026;-80
2021/12/06 02:49:07;;;;;;;24.95;13.75;;;6.70;86.30;;;;;;4987210;28;20461;-80
2021/12/06 02:51:32;;;;;;;24.77;13.20;;;6.70;86.20;;;;;;4985105;28;20030;-79
2021/12/06 02:53:58;;;;;;;26.83;14.73;;;6.70;86.20;;;;;;4984258;28;20057;-81
2021/12/06 02:56:33;;;;;;;25.48;13.90;;;6.70;86.10;;;;;;4990485;28;20022;-80
2021/12/06 02:59:06;;;;;;;18.80;11.50;;;6.70;86.10;;;;;;4984993;28;20027;-80
2021/12/06 03:01:37;;;;;;;33.33;17.45;;;6.70;86.10;;;;;;4989833;28;20018;-80
2021/12/06 03:04:04;;;;;;;31.95;18.20;;;6.60;86.10;;;;;;4988482;28;20049;-79
2021/12/06 03:06:30;;;;;;;28.25;15.77;;;6.60;86.20;;;;;;4986163;28;20058;-78
2021/12/06 03:09:06;;;;;;;27.75;14.98;;;6.60;86.30;;;;;;4986235;28;20026;-79
2021/12/06 03:11:42;;;;;;;29.13;15.35;;;6.60;86.40;;;;;;4984306;28;20022;-78
2021/12/06 03:14:11;;;;;;;25.85;14.40;;;6.60;86.30;;;;;;4982671;28;20021;-79
2021/12/06 03:16:36;;;;;;;23.92;13.60;;;6.60;86.30;;;;;;4985256;28;20041;-79
2021/12/06 03:19:05;;;;;;;28.30;15.98;;;6.60;86.20;;;;;;4985770;28;20432;-79
2021/12/06 03:21:31;;;;;;;27.02;14.85;;;6.60;86.20;;;;;;4984042;28;20359;-79
2021/12/06 03:23:57;;;;;;;29.10;15.40;;;6.60;86.30;;;;;;4988287;28;20477;-79
2021/12/06 03:26:23;;;;;;;25.27;14.25;;;6.60;86.30;;;;;;4988616;28;20030;-79
2021/12/06 03:28:49;;;;;;;23.83;14.68;;;6.70;86.30;;;;;;4982618;28;20042;-79
2021/12/06 03:31:16;;;;;;;25.92;14.43;;;6.70;86.30;;;;;;4987726;28;20130;-79
2021/12/06 03:33:45;;;;;;;27.05;15.10;;;6.70;86.20;;;;;;4979744;28;20023;-78
2021/12/06 03:36:12;;;;;;;28.50;15.23;;;6.70;86.20;;;;;;4983735;28;20037;-78
2021/12/06 03:38:38;;;;;;;27.10;15.10;;;6.70;86.10;;;;;;4983765;28;20034;-79
2021/12/06 03:41:05;;;;;;;24.70;14.10;;;6.70;86.00;;;;;;4987588;28;20019;-78
2021/12/06 03:43:32;;;;;;;25.70;14.07;;;6.80;86.00;;;;;;4983858;28;20038;-79
2021/12/06 03:45:57;;;;;;;28.17;15.20;;;6.80;86.00;;;;;;4981822;28;20019;-79
2021/12/06 03:48:23;;;;;;;26.55;14.60;;;6.80;86.00;;;;;;4984750;28;20045;-78
2021/12/06 03:50:48;;;;;;;27.15;14.55;;;6.80;86.00;;;;;;4981913;28;20086;-79
2021/12/06 03:53:14;;;;;;;20.90;12.82;;;6.80;85.90;;;;;;4990233;28;20080;-79
2021/12/06 03:55:40;;;;;;;27.67;14.95;;;6.80;85.90;;;;;;4984693;28;20022;-79
2021/12/06 03:58:06;;;;;;;27.85;15.63;;;6.80;85.80;;;;;;4987392;28;20034;-79
2021/12/06 04:00:33;;;;;;;26.45;13.93;;;6.80;85.90;;;;;;4989350;28;20026;-79
2021/12/06 04:02:59;;;;;;;25.60;13.52;;;6.80;85.90;;;;;;4991201;28;20069;-79
2021/12/06 04:05:25;;;;;;;26.23;14.60;;;6.80;85.80;;;;;;4986353;28;20059;-79
2021/12/06 04:07:50;;;;;;;27.33;15.20;;;6.80;85.80;;;;;;4988521;28;20041;-79
2021/12/06 04:10:16;;;;;;;26.38;15.20;;;6.80;85.80;;;;;;4986908;28;20112;-79
2021/12/06 04:12:42;;;;;;;26.20;14.82;;;6.70;85.80;;;;;;4988310;28;20422;-79
2021/12/06 04:15:09;;;;;;;36.13;20.42;;;6.70;85.80;;;;;;4983134;28;20020;-79
2021/12/06 04:17:36;;;;;;;37.22;21.13;;;6.60;85.80;;;;;;4981725;28;20466;-79
2021/12/06 04:20:07;;;;;;;47.33;26.02;;;6.40;85.70;;;;;;4983021;28;20081;-79
2021/12/06 04:22:32;;;;;;;39.05;23.13;;;6.20;85.90;;;;;;4978626;28;20041;-79
2021/12/06 04:25:01;;;;;;;41.03;24.23;;;6.10;86.30;;;;;;4987296;28;20038;-79
2021/12/06 04:27:27;;;;;;;36.50;21.30;;;6.00;86.60;;;;;;4986101;28;20038;-79
2021/12/06 04:29:52;;;;;;;38.65;22.38;;;5.90;87.00;;;;;;4985642;28;20030;-79
2021/12/06 04:32:19;;;;;;;33.55;19.67;;;5.90;87.20;;;;;;4988429;28;20080;-79
2021/12/06 04:34:45;;;;;;;36.70;21.10;;;5.90;87.30;;;;;;4988327;28;20066;-78
2021/12/06 04:37:11;;;;;;;31.63;17.15;;;6.00;87.40;;;;;;4988117;28;20026;-80
2021/12/06 04:39:38;;;;;;;28.00;15.75;;;6.00;87.20;;;;;;4985839;28;20382;-79
2021/12/06 04:42:04;;;;;;;30.27;15.60;;;6.10;87.20;;;;;;4983315;28;20058;-78
2021/12/06 04:44:30;;;;;;;30.13;15.93;;;6.10;87.00;;;;;;4980112;28;20046;-79
2021/12/06 04:46:57;;;;;;;33.30;19.90;;;6.20;86.90;;;;;;4981823;28;20413;-79
2021/12/06 04:49:25;;;;;;;34.88;18.17;;;6.20;86.70;;;;;;4983375;28;20109;-79
2021/12/06 04:51:53;;;;;;;33.05;20.42;;;6.10;86.70;;;;;;4974265;28;20489;-79
2021/12/06 04:54:22;;;;;;;31.63;18.38;;;6.10;86.70;;;;;;4977902;28;20042;-80
2021/12/06 04:56:50;;;;;;;37.78;21.60;;;6.10;86.90;;;;;;4983118;28;20019;-79
2021/12/06 04:59:25;;;;;;;36.00;19.13;;;6.00;86.90;;;;;;4983530;28;20034;-81
2021/12/06 05:01:54;;;;;;;33.28;18.15;;;6.00;87.10;;;;;;4992203;28;20038;-79
2021/12/06 05:04:26;;;;;;;26.23;14.73;;;6.00;87.10;;;;;;4987092;28;20481;-80
2021/12/06 05:06:55;;;;;;;34.38;19.83;;;6.00;87.10;;;;;;4980863;28;20030;-80
2021/12/06 05:09:35;;;;;;;40.55;22.85;;;6.00;87.00;;;;;;4981960;28;20034;-79
2021/12/06 05:12:01;;;;;;;39.17;22.88;;;5.90;87.10;;;;;;4979600;28;20092;-80
2021/12/06 05:14:27;;;;;;;34.60;19.60;;;5.80;87.20;;;;;;4980691;28;20026;-79
2021/12/06 05:16:54;;;;;;;44.92;24.30;;;5.80;87.40;;;;;;4988935;28;20105;-79
2021/12/06 05:19:20;;;;;;;37.90;20.25;;;5.70;87.40;;;;;;4983315;28;20463;-79
2021/12/06 05:21:46;;;;;;;32.47;18.27;;;5.70;87.60;;;;;;4985677;28;20023;-80
2021/12/06 05:24:14;;;;;;;34.05;19.00;;;5.70;87.60;;;;;;4985199;28;20045;-81
2021/12/06 05:26:40;;;;;;;38.25;19.02;;;5.70;87.60;;;;;;4986852;28;20557;-79
2021/12/06 05:29:07;;;;;;;32.22;17.70;;;5.80;87.60;;;;;;4981832;28;20118;-79
2021/12/06 05:31:38;;;;;;;33.30;17.98;;;5.80;87.50;;;;;;4977244;28;20723;-80
2021/12/06 05:34:09;;;;;;;28.48;15.82;;;5.70;87.40;;;;;;4978427;28;20752;-80
2021/12/06 05:36:34;;;;;;;28.88;16.15;;;5.80;87.50;;;;;;4986106;28;20476;-78
2021/12/06 05:39:00;;;;;;;30.02;16.58;;;5.80;87.50;;;;;;4976814;28;20022;-78
2021/12/06 05:41:26;;;;;;;30.42;16.15;;;5.80;87.50;;;;;;4981135;28;20049;-78
2021/12/06 05:43:51;;;;;;;32.83;16.10;;;5.80;87.50;;;;;;4978298;28;20045;-78
2021/12/06 05:46:18;;;;;;;29.42;15.00;;;5.90;87.40;;;;;;4981553;28;20030;-78
2021/12/06 05:48:43;;;;;;;34.72;16.95;;;5.90;87.20;;;;;;4988654;28;20046;-79
2021/12/06 05:51:09;;;;;;;28.50;15.07;;;6.00;87.10;;;;;;4984395;28;20042;-81
2021/12/06 05:53:35;;;;;;;22.75;12.65;;;6.00;86.90;;;;;;4989321;28;20030;-80
2021/12/06 05:56:02;;;;;;;34.47;18.30;;;5.90;86.70;;;;;;4981097;28;20026;-80
2021/12/06 05:58:28;;;;;;;43.63;22.77;;;5.80;86.50;;;;;;4984917;28;20181;-80
2021/12/06 06:00:56;;;;;;;40.50;21.85;;;5.60;86.60;;;;;;4980384;28;20693;-80
2021/12/06 06:03:22;;;;;;;37.70;21.98;;;5.50;86.80;;;;;;4985930;28;20096;-78
2021/12/06 06:05:48;;;;;;;36.33;19.90;;;5.50;87.00;;;;;;4979284;28;20030;-79
2021/12/06 06:08:14;;;;;;;27.13;16.48;;;5.40;87.20;;;;;;4982337;28;20037;-80
2021/12/06 06:10:39;;;;;;;33.13;18.60;;;5.40;87.40;;;;;;4985372;28;20042;-80
2021/12/06 06:13:07;;;;;;;43.25;23.05;;;5.40;87.50;;;;;;4994571;28;20021;-80
2021/12/06 06:15:32;;;;;;;39.60;21.58;;;5.40;87.40;;;;;;4979603;28;20034;-80
2021/12/06 06:17:59;;;;;;;36.95;20.75;;;5.40;87.50;;;;;;4994172;28;20050;-80
2021/12/06 06:20:42;;;;;;;25.30;14.55;;;5.40;87.60;;;;;;4995134;28;20026;-80
2021/12/06 06:23:08;;;;;;;;;;;5.40;87.60;;;;;;4994058;28;20034;-80
2021/12/06 06:25:33;;;;;;;27.15;16.25;;;5.40;87.50;;;;;;4997178;28;19917;-80
2021/12/06 06:28:00;;;;;;;40.00;22.05;;;5.40;87.60;;;;;;4993911;28;20469;-81
2021/12/06 06:30:25;;;;;;;42.08;23.33;;;5.40;87.60;;;;;;4992704;28;20541;-80
2021/12/06 06:32:51;;;;;;;41.95;22.77;;;5.40;87.50;;;;;;4984632;28;20113;-82
2021/12/06 06:35:19;;;;;;;34.28;18.83;;;5.30;87.70;;;;;;4986973;28;20046;-82
2021/12/06 06:37:45;;;;;;;34.80;18.55;;;5.30;87.80;;;;;;4984657;28;20030;-81
2021/12/06 06:40:12;;;;;;;29.25;16.05;;;5.30;88.00;;;;;;4987701;28;20109;-82
2021/12/06 06:42:37;;;;;;;32.00;18.67;;;5.40;88.00;;;;;;4996079;28;20195;-82
2021/12/06 06:45:04;;;;;;;35.95;19.98;;;5.30;88.00;;;;;;4997880;28;20055;-82
2021/12/06 06:47:30;;;;;;;37.60;20.88;;;5.30;88.10;;;;;;4978956;28;20035;-82
2021/12/06 06:49:56;;;;;;;34.15;18.58;;;5.20;88.10;;;;;;4990844;28;20351;-81
2021/12/06 06:52:21;;;;;;;33.28;18.67;;;5.20;88.80;;;;;;4998737;28;20018;-82
2021/12/06 06:54:47;;;;;;;30.85;16.88;;;5.20;88.30;;;;;;4984003;28;20039;-82
2021/12/06 06:57:13;;;;;;;44.85;24.05;;;5.30;88.30;;;;;;4985500;28;20030;-82
2021/12/06 06:59:38;;;;;;;44.55;23.58;;;5.20;88.20;;;;;;4989397;28;20030;-82
2021/12/06 07:02:04;;;;;;;41.88;22.73;;;5.20;88.40;;;;;;4985164;28;20034;-82
2021/12/06 07:04:33;;;;;;;38.80;20.98;;;5.10;88.50;;;;;;4988853;28;20035;-82
2021/12/06 07:06:58;;;;;;;37.72;20.52;;;5.10;88.60;;;;;;4992267;28;20057;-82
2021/12/06 07:09:24;;;;;;;40.88;22.25;;;5.20;88.60;;;;;;4976656;28;20066;-82
2021/12/06 07:11:51;;;;;;;36.38;20.02;;;5.20;88.60;;;;;;4982544;28;20037;-81
2021/12/06 07:14:17;;;;;;;38.08;21.02;;;5.10;88.60;;;;;;4973784;28;20446;-81
2021/12/06 07:16:45;;;;;;;36.58;19.90;;;5.20;88.80;;;;;;4968996;28;20030;-82
2021/12/06 07:19:11;;;;;;;34.05;19.73;;;5.20;88.70;;;;;;4974938;28;20723;-82
2021/12/06 07:21:37;;;;;;;42.00;24.17;;;5.10;88.70;;;;;;4986349;28;20035;-82
2021/12/06 07:24:04;;;;;;;33.42;19.13;;;5.20;88.90;;;;;;4981001;28;20038;-81
2021/12/06 07:26:30;;;;;;;27.60;15.93;;;5.10;88.90;;;;;;4984232;28;20084;-81
2021/12/06 07:28:56;;;;;;;36.03;22.35;;;5.10;88.90;;;;;;4984128;28;20453;-80
2021/12/06 07:31:24;;;;;;;34.33;19.13;;;5.10;89.00;;;;;;4986373;28;20027;-80
2021/12/06 07:33:50;;;;;;;36.85;21.48;;;5.10;89.00;;;;;;4983608;28;20030;-81
2021/12/06 07:36:21;;;;;;;38.05;21.88;;;5.10;88.90;;;;;;4990067;28;20033;-81
2021/12/06 07:38:47;;;;;;;40.05;20.80;;;5.00;89.00;;;;;;4985324;28;20029;-77
2021/12/06 07:41:15;;;;;;;33.13;19.58;;;5.00;89.20;;;;;;4985153;28;20022;-79
2021/12/06 07:43:41;;;;;;;27.25;16.73;;;5.00;89.30;;;;;;4982845;28;20043;-82
2021/12/06 07:46:08;;;;;;;29.60;16.45;;;5.00;89.40;;;;;;4984904;28;20034;-78
2021/12/06 07:48:34;;;;;;;38.70;20.38;;;5.00;89.30;;;;;;4988097;28;20396;-78
2021/12/06 07:51:00;;;;;;;37.10;21.30;;;5.10;90.00;;;;;;4985703;28;20019;-78
2021/12/06 07:53:27;;;;;;;37.47;22.27;;;5.10;89.30;;;;;;4979615;28;20045;-78
2021/12/06 07:55:53;;;;;;;32.38;18.42;;;5.00;89.10;;;;;;4981893;28;20019;-78
2021/12/06 07:58:19;;;;;;;28.10;16.95;;;5.00;89.80;;;;;;4981290;28;20689;-78
2021/12/06 08:00:50;;;;;;;23.45;13.25;;;4.90;89.30;;;;;;4990589;28;20037;-78
2021/12/06 08:03:18;;;;;;;30.27;18.77;;;5.00;89.30;;;;;;4981754;28;20116;-78
2021/12/06 08:05:45;;;;;;;28.63;17.63;;;5.00;89.30;;;;;;4981434;28;20142;-78
2021/12/06 08:08:11;;;;;;;39.55;22.92;;;5.00;89.30;;;;;;4985116;28;20022;-77
2021/12/06 08:10:44;;;;;;;33.38;20.17;;;4.80;89.10;;;;;;4986854;28;20037;-79
2021/12/06 08:13:10;;;;;;;;;;;4.70;89.50;;;;;;4984859;28;20027;-78
2021/12/06 08:15:36;;;;;;;28.48;17.08;;;4.70;89.70;;;;;;4980070;28;19914;-79
2021/12/06 08:18:03;;;;;;;34.95;19.45;;;4.70;89.90;;;;;;4982879;28;20110;-79
2021/12/06 08:20:28;;;;;;;36.28;21.02;;;4.70;89.90;;;;;;4984075;28;20030;-92
2021/12/06 08:22:54;;;;;;;26.95;17.45;;;4.60;90.20;;;;;;4979906;28;20034;-79
2021/12/06 08:25:19;;;;;;;38.15;22.13;;;4.70;90.00;;;;;;4982310;28;20030;-81
2021/12/06 08:27:46;;;;;;;28.42;16.42;;;4.70;90.00;;;;;;4984324;28;20030;-79
2021/12/06 08:30:13;;;;;;;29.08;18.17;;;4.70;90.00;;;;;;4986042;28;20026;-78
2021/12/06 08:32:39;;;;;;;26.55;16.10;;;4.70;90.00;;;;;;4977456;28;20022;-78
2021/12/06 08:35:05;;;;;;;29.83;18.80;;;4.70;90.00;;;;;;4981669;28;20113;-80
2021/12/06 08:37:31;;;;;;;29.80;17.80;;;4.60;89.90;;;;;;4976325;28;20057;-81
2021/12/06 08:39:57;;;;;;;37.35;20.05;;;4.60;90.00;;;;;;4978961;28;20490;-81
2021/12/06 08:42:23;;;;;;;29.95;19.15;;;4.50;90.00;;;;;;4980689;28;20039;-81
2021/12/06 08:44:48;;;;;;;30.08;19.20;;;4.50;90.10;;;;;;4979578;28;20030;-81
2021/12/06 08:47:15;;;;;;;28.88;17.30;;;4.40;90.10;;;;;;4984917;28;20034;-84
2021/12/06 08:49:41;;;;;;;25.48;16.33;;;4.40;90.20;;;;;;4983883;28;20022;-80
2021/12/06 08:52:07;;;;;;;22.88;14.00;;;4.50;90.30;;;;;;4982148;28;20019;-80
2021/12/06 08:54:33;;;;;;;23.88;14.18;;;4.60;90.30;;;;;;4984071;28;20037;-80
2021/12/06 08:57:01;;;;;;;33.50;19.52;;;4.70;90.20;;;;;;4974411;28;20027;-81
2021/12/06 08:59:27;;;;;;;33.40;20.00;;;4.70;90.10;;;;;;4980631;28;20113;-81
2021/12/06 09:01:56;;;;;;;33.10;18.58;;;4.70;90.00;;;;;;4977267;28;20477;-80
2021/12/06 09:04:23;;;;;;;42.42;22.00;;;4.70;90.00;;;;;;4992206;28;20042;-82
2021/12/06 09:06:51;;;;;;;36.40;20.60;;;4.80;89.90;;;;;;4977684;28;20031;-82
2021/12/06 09:09:18;;;;;;;29.63;18.45;;;4.80;89.70;;;;;;4982042;28;20030;-81
2021/12/06 09:11:45;;;;;;;29.25;19.02;;;4.70;89.60;;;;;;4979754;28;20486;-82
2021/12/06 09:14:13;;;;;;;29.20;17.58;;;4.70;89.60;;;;;;4984920;28;20413;-82
2021/12/06 09:16:39;;;;;;;27.73;18.05;;;4.80;89.60;;;;;;4980061;28;20026;-82
2021/12/06 09:19:07;;;;;;;29.17;18.30;;;4.80;89.50;;;;;;4983488;28;20025;-82
2021/12/06 09:21:36;;;;;;;32.25;19.73;;;4.80;89.50;;;;;;4981036;28;20511;-82
2021/12/06 09:24:07;;;;;;;28.58;16.67;;;4.80;89.40;;;;;;4984867;28;20034;-82
2021/12/06 09:26:34;;;;;;;32.40;20.70;;;4.80;89.40;;;;;;4978474;28;20038;-81
2021/12/06 09:29:00;;;;;;;25.52;14.90;;;4.90;89.30;;;;;;4976077;28;20136;-82
2021/12/06 09:31:25;;;;;;;28.02;16.88;;;4.90;89.30;;;;;;4982498;28;20477;-81
2021/12/06 09:33:51;;;;;;;26.70;17.15;;;4.90;89.20;;;;;;4977930;28;20041;-82
2021/12/06 09:36:18;;;;;;;16.33;11.93;;;4.80;89.00;;;;;;4976801;28;20150;-81
2021/12/06 09:38:45;;;;;;;29.02;17.77;;;4.80;89.00;;;;;;4978851;28;20026;-79
2021/12/06 09:41:21;;;;;;;30.27;17.27;;;4.70;88.80;;;;;;4981945;28;20104;-80
2021/12/06 09:43:48;;;;;;;26.70;16.20;;;4.70;89.00;;;;;;4989090;28;20047;-80
2021/12/06 09:46:15;;;;;;;28.48;17.67;;;4.70;89.00;;;;;;4979804;28;20022;-80
2021/12/06 09:48:44;;;;;;;25.27;15.43;;;4.70;88.90;;;;;;4980661;28;20026;-80
2021/12/06 09:51:14;;;;;;;30.58;17.50;;;4.70;89.10;;;;;;4978635;28;20041;-80
2021/12/06 09:53:42;;;;;;;25.75;16.23;;;4.60;89.10;;;;;;4974928;28;20042;-79
2021/12/06 09:56:12;;;;;;;21.50;13.57;;;4.60;89.10;;;;;;4976524;28;20256;-80
2021/12/06 09:58:39;;;;;;;22.85;13.57;;;4.60;89.30;;;;;;4981674;28;20034;-80
2021/12/06 10:01:16;;;;;;;21.83;12.45;;;4.60;89.30;;;;;;4978606;28;20029;-81
2021/12/06 10:03:46;;;;;;;14.60;9.35;;;4.70;89.40;;;;;;4983038;28;20129;-81
2021/12/06 10:06:12;;;;;;;26.80;15.23;;;4.70;89.30;;;;;;4981654;28;20022;-79
2021/12/06 10:08:44;;;;;;;27.02;17.08;;;4.70;89.30;;;;;;4981440;28;20029;-80
2021/12/06 10:11:11;;;;;;;23.30;14.68;;;4.70;89.20;;;;;;4989016;28;20417;-79
2021/12/06 10:13:38;;;;;;;40.72;17.65;;;4.70;89.30;;;;;;4985760;28;20080;-80
2021/12/06 10:16:04;;;;;;;19.25;12.73;;;4.60;89.20;;;;;;4981853;28;20018;-80
2021/12/06 10:18:30;;;;;;;20.75;14.45;;;4.60;89.40;;;;;;4986256;28;20035;-79
2021/12/06 10:20:56;;;;;;;22.70;15.32;;;4.50;89.50;;;;;;4984652;28;20011;-79
2021/12/06 10:23:21;;;;;;;16.75;11.57;;;4.50;89.80;;;;;;4985906;28;20030;-80
2021/12/06 10:25:50;;;;;;;23.00;14.27;;;4.60;89.90;;;;;;4983712;28;20533;-80
2021/12/06 10:28:18;;;;;;;19.83;12.00;;;4.60;89.90;;;;;;4984191;28;20026;-79
2021/12/06 10:30:50;;;;;;;25.83;16.08;;;4.70;89.90;;;;;;4984229;28;20572;-79
2021/12/06 10:33:19;;;;;;;17.63;11.38;;;4.60;89.70;;;;;;4981654;28;20121;-79
2021/12/06 10:35:53;;;;;;;38.13;19.63;;;4.70;89.80;;;;;;4989719;28;20031;-80
2021/12/06 10:38:22;;;;;;;19.27;11.88;;;4.70;89.80;;;;;;4989084;28;20049;-79
2021/12/06 10:40:48;;;;;;;27.55;15.68;;;4.70;89.90;;;;;;4988978;28;20114;-78
2021/12/06 10:43:14;;;;;;;25.50;15.85;;;4.80;89.80;;;;;;4992903;28;20604;-79
2021/12/06 10:45:51;;;;;;;22.30;13.68;;;4.70;89.60;;;;;;4988400;28;20041;-76
2021/12/06 10:48:20;;;;;;;36.65;16.27;;;4.70;89.80;;;;;;4991106;28;20042;-77
2021/12/06 10:50:50;;;;;;;22.67;13.15;;;4.70;89.80;;;;;;4992065;28;20033;-77
2021/12/06 10:53:19;;;;;;;18.63;12.18;;;4.80;90.00;;;;;;4993528;28;20152;-77
2021/12/06 10:55:46;;;;;;;35.53;20.67;;;4.80;89.90;;;;;;4980973;28;20019;-76
2021/12/06 10:58:18;;;;;;;24.63;16.63;;;4.80;89.80;;;;;;4994053;28;20066;-77
2021/12/06 11:00:57;;;;;;;21.92;13.27;;;4.70;89.90;;;;;;4990519;28;20460;-77
2021/12/06 11:03:32;;;;;;;27.38;15.75;;;4.70;90.00;;;;;;4977211;28;20694;-77
2021/12/06 11:06:05;;;;;;;38.17;19.58;;;4.80;90.10;;;;;;4980778;28;20125;-79
2021/12/06 11:08:35;;;;;;;28.25;13.63;;;4.80;90.10;;;;;;4984464;28;20473;-78
2021/12/06 11:11:12;;;;;;;31.58;18.38;;;4.80;90.10;;;;;;4978085;28;20145;-78
2021/12/06 11:13:40;;;;;;;21.00;14.05;;;4.90;90.10;;;;;;4985024;28;20030;-78
2021/12/06 11:16:12;;;;;;;22.25;14.45;;;4.90;90.00;;;;;;4979551;28;20027;-77
2021/12/06 11:18:42;;;;;;;31.37;19.03;;;5.00;90.00;;;;;;4976129;28;20026;-79
2021/12/06 11:21:24;;;;;;;26.20;15.35;;;4.90;90.00;;;;;;4976806;28;20274;-79
2021/12/06 11:24:04;;;;;;;31.17;17.95;;;5.00;90.00;;;;;;4975930;28;20046;-79
2021/12/06 11:26:32;;;;;;;30.13;18.55;;;5.10;90.00;;;;;;4975756;28;20417;-78
2021/12/06 11:29:04;;;;;;;33.38;22.08;;;5.10;89.90;;;;;;4986270;28;20088;-78
2021/12/06 11:31:31;;;;;;;22.13;14.57;;;5.10;89.70;;;;;;4986331;28;20030;-79
2021/12/06 11:34:03;;;;;;;35.67;23.52;;;5.10;89.60;;;;;;4984323;28;20290;-79
2021/12/06 11:36:31;;;;;;;33.50;21.40;;;5.10;89.50;;;;;;4976246;28;20429;-76
2021/12/06 11:38:59;;;;;;;22.77;14.05;;;5.00;89.40;;;;;;4981330;28;20019;-76
2021/12/06 11:41:25;;;;;;;20.52;12.85;;;5.10;89.40;;;;;;4988647;28;20636;-77
2021/12/06 11:43:51;;;;;;;26.13;16.60;;;5.10;89.40;;;;;;4982837;28;20038;-77
2021/12/06 11:46:31;;;;;;;28.50;17.38;;;5.10;89.30;;;;;;4984779;28;20041;-78
2021/12/06 11:48:57;;;;;;;32.13;17.90;;;5.10;89.30;;;;;;4978097;28;20084;-77
2021/12/06 11:51:24;;;;;;;20.88;13.30;;;5.10;89.20;;;;;;4977121;28;20396;-76
2021/12/06 11:53:54;;;;;;;23.02;14.02;;;5.20;89.30;;;;;;4981914;28;20034;-76
2021/12/06 11:56:19;;;;;;;22.63;13.63;;;5.20;89.10;;;;;;4981458;28;20022;-76
2021/12/06 11:58:48;;;;;;;22.15;12.35;;;5.20;89.30;;;;;;4980139;28;20034;-76
2021/12/06 12:01:17;;;;;;;26.48;15.05;;;5.20;89.00;;;;;;4980320;28;20109;-77
2021/12/06 12:03:47;;;;;;;25.70;15.48;;;5.10;88.90;;;;;;4987316;28;20030;-76
2021/12/06 12:06:35;;;;;;;29.67;16.38;;;5.10;88.90;;;;;;4976556;28;20077;-76
2021/12/06 12:09:17;;;;;;;27.25;14.10;;;5.10;89.00;;;;;;4986624;28;20065;-76
2021/12/06 12:12:15;;;;;;;29.20;15.15;;;5.10;89.00;;;;;;4991986;28;20026;-77
2021/12/06 12:14:55;;;;;;;28.05;15.20;;;5.10;89.00;;;;;;4988388;28;20121;-76
2021/12/06 12:17:27;;;;;;;33.30;17.67;;;5.10;89.00;;;;;;4992282;28;20025;-76
2021/12/06 12:19:56;;;;;;;36.63;18.20;;;5.10;89.00;;;;;;4986704;28;20624;-76
2021/12/06 12:22:23;;;;;;;28.35;15.27;;;5.00;88.90;;;;;;4990858;28;20026;-76
2021/12/06 12:24:53;;;;;;;29.00;15.50;;;5.10;89.00;;;;;;4993721;28;20046;-76
2021/12/06 12:27:38;;;;;;;28.05;14.30;;;5.00;88.90;;;;;;4985453;28;21677;-75
2021/12/06 12:30:07;;;;;;;37.45;22.10;;;5.00;89.00;;;;;;4990873;28;20030;-76
2021/12/06 12:32:33;;;;;;;26.27;15.63;;;4.90;89.00;;;;;;4990954;28;20019;-77
2021/12/06 12:35:05;;;;;;;18.63;10.82;;;4.90;89.10;;;;;;4993940;28;20061;-77
2021/12/06 12:37:33;;;;;;;19.83;12.23;;;4.90;89.20;;;;;;4992463;28;20022;-76
2021/12/06 12:40:05;;;;;;;25.15;14.40;;;4.90;89.10;;;;;;4988048;28;20571;-75
2021/12/06 12:42:31;;;;;;;27.90;15.82;;;4.90;89.10;;;;;;4987025;28;21223;-76
2021/12/06 12:44:59;;;;;;;22.80;13.88;;;4.90;88.90;;;;;;4981000;28;20030;-76
2021/12/06 12:47:28;;;;;;;23.95;14.30;;;4.90;88.90;;;;;;4992898;28;20077;-77
2021/12/06 12:50:07;;;;;;;26.27;14.90;;;4.90;88.90;;;;;;4980969;28;20065;-78
2021/12/06 12:52:35;;;;;;;23.38;13.82;;;4.90;88.90;;;;;;4981971;28;20018;-77
2021/12/06 12:55:02;;;;;;;16.58;9.85;;;4.90;88.80;;;;;;4981298;28;20077;-76
2021/12/06 12:57:37;;;;;;;25.63;15.70;;;4.90;88.70;;;;;;4989975;28;20019;-77